Time;durP1;ratioP1;P1;durP2;ratioP2;P2;SDS_P1;SDS_P2;PMS_P1;PMS_P2;Temp;Humidity;BMP_temperature;BMP_pressure;BME280_temperature;BME280_humidity;BME280_pressure;Samples;Min_cycle;Max_cycle;Signal;HPM_P1;HPM_P2
2022/11/26 00:00:29;;;;;;;4.65;1.40;;;12.20;73.50;;;;;;2342096;54;20925;-74
2022/11/26 00:02:57;;;;;;;4.72;1.40;;;12.20;73.50;;;;;;2343613;53;21722;-74
2022/11/26 00:05:23;;;;;;;3.22;1.10;;;12.10;73.30;;;;;;2343971;53;21069;-74
2022/11/26 00:08:02;;;;;;;4.87;1.40;;;12.10;73.30;;;;;;2589946;52;21020;-74
2022/11/26 00:10:30;;;;;;;4.62;1.35;;;12.10;73.00;;;;;;2527112;52;21877;-74
2022/11/26 00:12:56;;;;;;;5.07;0.88;;;12.10;73.30;;;;;;2343278;53;21068;-75
2022/11/26 00:15:38;;;;;;;4.00;0.98;;;12.00;73.10;;;;;;2589891;52;20893;-74
2022/11/26 00:18:04;;;;;;;3.55;1.00;;;12.00;72.70;;;;;;2343891;53;20944;-74
2022/11/26 00:20:31;;;;;;;3.80;1.00;;;12.00;73.10;;;;;;2343947;53;21016;-74
2022/11/26 00:23:00;;;;;;;3.78;1.08;;;12.00;73.10;;;;;;2375392;53;20931;-74
2022/11/26 00:25:38;;;;;;;3.75;1.20;;;12.00;73.10;;;;;;2590261;52;21007;-74
2022/11/26 00:28:34;;;;;;;3.25;1.17;;;12.00;72.90;;;;;;2343511;53;21694;-74
2022/11/26 00:31:13;;;;;;;3.35;0.98;;;12.00;72.80;;;;;;2343116;53;20960;-75
2022/11/26 00:33:39;;;;;;;3.00;1.20;;;11.90;72.90;;;;;;2344047;53;21793;-74
2022/11/26 00:36:29;;;;;;;4.75;1.42;;;11.90;73.20;;;;;;2344050;53;20964;-75
2022/11/26 00:39:05;;;;;;;4.68;1.25;;;11.90;73.10;;;;;;2377390;53;20900;-74
2022/11/26 00:41:33;;;;;;;3.50;1.23;;;11.90;73.20;;;;;;2343730;53;20944;-74
2022/11/26 00:43:59;;;;;;;7.80;1.75;;;11.80;73.30;;;;;;2343121;53;21714;-74
2022/11/26 00:46:25;;;;;;;3.78;1.58;;;11.80;73.40;;;;;;2343656;53;21421;-74
2022/11/26 00:48:52;;;;;;;3.78;1.40;;;11.80;73.40;;;;;;2343676;53;21444;-73
2022/11/26 00:51:25;;;;;;;4.32;1.35;;;11.80;73.50;;;;;;2343164;53;20969;-74
2022/11/26 00:53:55;;;;;;;3.75;1.40;;;11.80;73.50;;;;;;2343569;53;21052;-74
2022/11/26 00:56:21;;;;;;;4.32;1.40;;;11.80;73.60;;;;;;2305595;53;2340336;-74
2022/11/26 00:58:48;;;;;;;3.28;1.60;;;11.80;73.60;;;;;;2344340;53;21469;-74
2022/11/26 01:01:20;;;;;;;4.30;1.65;;;11.80;73.60;;;;;;2589466;52;20955;-75
2022/11/26 01:03:46;;;;;;;6.35;2.10;;;11.90;73.70;;;;;;2403540;52;21342;-74
2022/11/26 01:06:23;;;;;;;3.37;1.60;;;11.80;73.70;;;;;;2342263;53;20897;-74
2022/11/26 01:08:50;;;;;;;6.57;2.50;;;11.80;73.70;;;;;;2343426;54;21037;-74
2022/11/26 01:11:18;;;;;;;6.75;2.50;;;11.90;73.80;;;;;;2343248;54;20913;-74
2022/11/26 01:13:47;;;;;;;7.12;2.60;;;11.80;73.70;;;;;;2347829;53;20949;-75
2022/11/26 01:16:27;;;;;;;6.95;2.67;;;11.90;73.80;;;;;;2594685;52;20898;-74
2022/11/26 01:18:57;;;;;;;5.57;2.55;;;11.90;73.60;;;;;;2594160;52;20949;-74
2022/11/26 01:21:25;;;;;;;7.07;2.97;;;11.90;73.70;;;;;;2343523;53;20996;-74
2022/11/26 01:23:51;;;;;;;4.95;2.22;;;11.90;73.80;;;;;;2343349;53;20928;-74
2022/11/26 01:26:23;;;;;;;8.13;3.00;;;11.80;73.60;;;;;;2432369;52;20938;-74
2022/11/26 01:28:50;;;;;;;7.43;2.05;;;11.90;73.70;;;;;;2348943;54;20946;-74
2022/11/26 01:31:24;;;;;;;5.97;2.22;;;11.90;73.60;;;;;;2339733;54;21204;-74
2022/11/26 01:33:51;;;;;;;5.15;1.92;;;11.90;73.50;;;;;;2341498;54;21421;-74
2022/11/26 01:36:31;;;;;;;6.72;2.50;;;11.80;73.50;;;;;;2622451;52;21006;-74
2022/11/26 01:39:23;;;;;;;7.75;2.70;;;11.90;73.30;;;;;;2603216;52;21016;-74
2022/11/26 01:42:41;;;;;;;3.75;1.80;;;11.80;73.50;;;;;;2342350;54;20964;-75
2022/11/26 01:45:16;;;;;;;5.70;2.30;;;11.90;73.10;;;;;;2376828;53;21081;-74
2022/11/26 01:47:42;;;;;;;5.75;2.67;;;11.80;73.30;;;;;;2588699;52;20928;-75
2022/11/26 01:50:44;;;;;;;9.55;2.40;;;11.80;73.50;;;;;;2341795;54;20920;-75
2022/11/26 01:53:17;;;;;;;6.12;2.10;;;11.80;73.10;;;;;;2342116;54;20980;-75
2022/11/26 01:55:48;;;;;;;4.72;2.10;;;11.80;73.50;;;;;;2588778;52;21013;-74
2022/11/26 01:58:44;;;;;;;6.85;2.00;;;11.80;73.50;;;;;;2564619;52;20970;-74
2022/11/26 02:01:11;;;;;;;5.45;2.30;;;11.80;73.50;;;;;;2370969;53;20970;-74
2022/11/26 02:03:46;;;;;;;5.37;2.10;;;11.80;73.60;;;;;;2371373;53;21473;-74
2022/11/26 02:06:15;;;;;;;5.60;1.80;;;11.80;73.70;;;;;;2599081;52;20929;-74
2022/11/26 02:08:41;;;;;;;3.78;1.55;;;11.80;73.70;;;;;;2474920;52;20993;-74
2022/11/26 02:11:16;;;;;;;5.40;1.77;;;11.80;73.70;;;;;;2345859;53;21840;-75
2022/11/26 02:13:42;;;;;;;3.12;1.45;;;11.80;73.50;;;;;;2348251;53;20919;-74
2022/11/26 02:17:41;;;;;;;5.25;1.70;;;11.80;73.70;;;;;;2366822;53;21102;-74
2022/11/26 02:20:30;;;;;;;4.43;1.58;;;11.80;73.30;;;;;;2371196;53;20966;-74
2022/11/26 02:24:44;;;;;;;6.05;1.80;;;11.80;73.40;;;;;;2413050;52;20998;-74
2022/11/26 02:27:23;;;;;;;3.58;1.55;;;11.90;72.80;;;;;;2370927;53;21553;-74
2022/11/26 02:30:09;;;;;;;4.25;2.03;;;11.90;73.40;;;;;;2371115;53;20962;-74
2022/11/26 02:33:22;;;;;;;5.35;1.87;;;11.80;73.20;;;;;;2371636;53;20970;-74
2022/11/26 02:36:00;;;;;;;2.97;1.27;;;11.80;72.90;;;;;;2371880;53;21006;-74
2022/11/26 02:38:31;;;;;;;3.97;1.50;;;11.80;73.60;;;;;;2348402;53;20972;-74
2022/11/26 02:40:59;;;;;;;5.00;1.80;;;11.80;73.60;;;;;;2339761;53;20952;-74
2022/11/26 02:43:25;;;;;;;5.30;1.37;;;11.80;73.60;;;;;;2590370;52;20945;-74
2022/11/26 02:45:55;;;;;;;4.55;2.20;;;11.80;73.60;;;;;;2343613;53;20940;-74
2022/11/26 02:48:24;;;;;;;5.30;1.80;;;11.80;73.70;;;;;;2343120;53;21325;-74
2022/11/26 02:50:55;;;;;;;3.37;1.37;;;11.80;73.70;;;;;;2344217;53;20965;-74
2022/11/26 02:53:25;;;;;;;5.03;2.00;;;11.80;73.70;;;;;;2522598;52;20931;-75
2022/11/26 02:56:00;;;;;;;4.90;1.80;;;11.80;73.70;;;;;;2358678;53;21494;-74
2022/11/26 02:58:26;;;;;;;7.28;2.30;;;11.80;73.80;;;;;;2348435;53;20917;-74
2022/11/26 03:00:52;;;;;;;6.07;2.15;;;11.80;73.80;;;;;;2343677;53;20980;-74
2022/11/26 03:03:33;;;;;;;4.75;1.70;;;11.80;73.80;;;;;;2343310;53;20965;-74
2022/11/26 03:06:03;;;;;;;3.65;1.77;;;11.80;73.60;;;;;;2588726;52;20996;-74
2022/11/26 03:08:30;;;;;;;4.87;1.75;;;11.80;73.80;;;;;;2343761;53;21220;-74
2022/11/26 03:10:57;;;;;;;3.35;1.73;;;11.80;73.80;;;;;;2342686;53;20941;-74
2022/11/26 03:13:24;;;;;;;3.10;1.45;;;11.80;73.80;;;;;;2447763;52;20937;-74
2022/11/26 03:15:50;;;;;;;3.97;1.45;;;11.80;73.80;;;;;;2344060;53;20982;-74
2022/11/26 03:18:16;;;;;;;3.87;1.30;;;11.80;73.80;;;;;;2589293;52;20954;-74
2022/11/26 03:20:47;;;;;;;5.60;1.40;;;11.80;73.80;;;;;;2343591;53;20970;-74
2022/11/26 03:23:16;;;;;;;2.80;1.40;;;11.80;73.80;;;;;;2585418;52;21081;-74
2022/11/26 03:25:43;;;;;;;3.05;1.12;;;11.80;73.70;;;;;;2590106;52;20965;-74
2022/11/26 03:28:09;;;;;;;4.15;1.30;;;11.80;73.60;;;;;;2343161;53;21481;-74
2022/11/26 03:30:36;;;;;;;3.03;1.23;;;11.90;73.70;;;;;;2478683;52;20977;-74
2022/11/26 03:33:02;;;;;;;5.00;1.20;;;11.80;74.30;;;;;;2354792;53;20910;-74
2022/11/26 03:35:29;;;;;;;3.97;1.37;;;11.80;73.60;;;;;;2371897;53;21778;-74
2022/11/26 03:37:55;;;;;;;4.12;1.20;;;11.80;73.60;;;;;;2371757;53;20985;-75
2022/11/26 03:40:24;;;;;;;3.67;0.98;;;11.80;73.70;;;;;;2482595;52;20997;-75
2022/11/26 03:42:51;;;;;;;3.90;1.45;;;11.80;73.60;;;;;;2371932;53;20998;-74
2022/11/26 03:45:17;;;;;;;3.75;1.40;;;11.80;73.70;;;;;;2371526;53;20994;-74
2022/11/26 03:47:45;;;;;;;3.40;1.20;;;11.80;73.70;;;;;;2624211;52;20930;-74
2022/11/26 03:50:11;;;;;;;4.40;1.00;;;11.80;73.70;;;;;;2371021;53;20946;-74
2022/11/26 03:52:40;;;;;;;4.87;1.27;;;11.80;73.70;;;;;;2474659;52;21334;-74
2022/11/26 03:55:06;;;;;;;3.47;0.95;;;11.80;73.80;;;;;;2371782;53;20982;-74
2022/11/26 03:57:33;;;;;;;4.15;1.25;;;11.80;73.80;;;;;;2623567;52;20903;-74
2022/11/26 04:00:00;;;;;;;2.08;0.90;;;11.80;73.90;;;;;;2624338;52;20938;-74
2022/11/26 04:02:27;;;;;;;3.08;1.00;;;11.80;73.90;;;;;;2377963;52;21784;-74
2022/11/26 04:04:53;;;;;;;3.42;1.20;;;11.80;73.90;;;;;;2353518;53;20922;-74
2022/11/26 04:07:19;;;;;;;2.67;0.88;;;11.80;73.90;;;;;;2387076;52;20906;-74
2022/11/26 04:09:48;;;;;;;5.03;1.40;;;11.80;73.90;;;;;;2371866;53;20910;-74
2022/11/26 04:12:15;;;;;;;4.12;1.40;;;11.80;73.90;;;;;;2350889;53;20973;-74
2022/11/26 04:14:41;;;;;;;3.70;1.48;;;11.80;73.90;;;;;;2371826;53;20994;-75
2022/11/26 04:17:08;;;;;;;2.80;1.15;;;11.80;73.90;;;;;;2623688;52;20907;-74
2022/11/26 04:19:35;;;;;;;4.22;1.45;;;11.80;73.90;;;;;;2371640;53;20915;-74
2022/11/26 04:22:02;;;;;;;2.60;1.17;;;11.80;73.80;;;;;;2624516;52;20902;-75
2022/11/26 04:24:31;;;;;;;3.50;1.30;;;11.80;73.80;;;;;;2351850;54;21821;-74
2022/11/26 04:26:59;;;;;;;3.75;1.90;;;11.80;73.80;;;;;;2623975;52;20931;-74
2022/11/26 04:29:25;;;;;;;3.10;1.15;;;11.90;73.80;;;;;;2371339;53;21580;-74
2022/11/26 04:31:52;;;;;;;6.45;1.37;;;11.80;73.70;;;;;;2624016;52;20895;-74
2022/11/26 04:34:18;;;;;;;4.10;1.10;;;11.80;73.70;;;;;;2371298;53;21735;-74
2022/11/26 04:36:44;;;;;;;3.40;1.10;;;11.90;73.80;;;;;;2557184;52;20966;-74
2022/11/26 04:39:11;;;;;;;5.32;1.17;;;11.80;73.80;;;;;;2354615;53;20990;-74
2022/11/26 04:41:38;;;;;;;4.45;1.30;;;11.80;73.80;;;;;;2619051;52;20949;-74
2022/11/26 04:44:04;;;;;;;5.65;1.35;;;11.80;73.80;;;;;;2371902;53;20900;-74
2022/11/26 04:46:30;;;;;;;2.92;0.90;;;11.90;73.80;;;;;;2595172;52;21057;-74
2022/11/26 04:48:57;;;;;;;3.17;1.00;;;11.80;73.80;;;;;;2358450;53;20902;-75
2022/11/26 04:51:23;;;;;;;4.37;1.45;;;11.80;73.80;;;;;;2614966;52;20950;-74
2022/11/26 04:53:49;;;;;;;4.10;1.30;;;11.80;73.80;;;;;;2371515;53;21061;-75
2022/11/26 04:56:18;;;;;;;3.03;0.88;;;11.80;73.80;;;;;;2547143;52;21385;-74
2022/11/26 04:58:47;;;;;;;3.50;1.25;;;11.90;74.00;;;;;;2371647;53;20986;-75
2022/11/26 05:01:14;;;;;;;4.18;1.42;;;11.90;74.00;;;;;;2395687;52;20967;-74
2022/11/26 05:03:40;;;;;;;4.05;1.20;;;11.90;74.00;;;;;;2355398;53;20946;-74
2022/11/26 05:06:07;;;;;;;1.77;0.80;;;11.90;74.10;;;;;;2411423;52;20982;-74
2022/11/26 05:08:33;;;;;;;2.42;0.90;;;11.90;74.00;;;;;;2371465;53;20978;-74
2022/11/26 05:11:01;;;;;;;2.70;1.10;;;11.90;73.90;;;;;;2624043;52;20926;-74
2022/11/26 05:13:28;;;;;;;2.00;0.90;;;11.90;73.90;;;;;;2624135;52;20954;-75
2022/11/26 05:15:55;;;;;;;3.85;1.10;;;11.90;73.90;;;;;;2597876;52;21038;-73
2022/11/26 05:18:22;;;;;;;3.80;1.20;;;11.90;73.80;;;;;;2368667;53;20973;-74
2022/11/26 05:20:49;;;;;;;2.67;1.08;;;11.90;73.70;;;;;;2623633;52;21014;-75
2022/11/26 05:23:15;;;;;;;3.78;1.10;;;11.90;73.70;;;;;;2371319;53;21037;-74
2022/11/26 05:25:42;;;;;;;3.50;1.30;;;11.90;73.70;;;;;;2363064;53;21486;-75
2022/11/26 05:28:08;;;;;;;3.42;1.27;;;11.90;73.70;;;;;;2610690;52;20934;-74
2022/11/26 05:30:35;;;;;;;3.47;1.45;;;11.90;73.70;;;;;;2371461;53;20918;-74
2022/11/26 05:33:01;;;;;;;2.65;1.10;;;11.90;73.70;;;;;;2596906;52;21026;-75
2022/11/26 05:35:29;;;;;;;4.65;1.30;;;11.90;73.70;;;;;;2370400;53;20998;-74
2022/11/26 05:37:55;;;;;;;3.67;1.10;;;11.90;73.70;;;;;;2370951;53;20871;-74
2022/11/26 05:40:22;;;;;;;4.18;1.30;;;11.90;73.60;;;;;;2623823;52;20969;-74
2022/11/26 05:43:00;;;;;;;3.47;1.40;;;11.90;73.60;;;;;;2370581;53;20982;-74
2022/11/26 05:45:27;;;;;;;5.05;1.40;;;11.90;73.40;;;;;;2623492;52;21034;-74
2022/11/26 05:47:53;;;;;;;3.87;1.30;;;11.90;73.70;;;;;;2371391;53;20926;-74
2022/11/26 05:50:21;;;;;;;3.92;1.70;;;11.90;73.70;;;;;;2623631;52;21414;-74
2022/11/26 05:52:48;;;;;;;4.05;1.77;;;11.90;73.60;;;;;;2371348;53;20930;-74
2022/11/26 05:55:15;;;;;;;5.62;1.90;;;11.90;73.40;;;;;;2371658;53;20911;-74
2022/11/26 05:57:42;;;;;;;4.12;1.65;;;11.90;73.30;;;;;;2371401;53;20926;-73
2022/11/26 06:00:09;;;;;;;4.03;1.92;;;11.90;73.30;;;;;;2623981;52;20992;-74
2022/11/26 06:02:36;;;;;;;4.95;2.10;;;11.80;73.30;;;;;;2370906;53;20955;-74
2022/11/26 06:05:03;;;;;;;4.30;1.92;;;11.80;73.40;;;;;;2624117;52;21025;-74
2022/11/26 06:07:32;;;;;;;3.65;1.70;;;11.80;73.40;;;;;;2371349;53;20926;-74
2022/11/26 06:09:59;;;;;;;3.90;1.85;;;11.80;73.30;;;;;;2623288;52;20883;-74
2022/11/26 06:12:28;;;;;;;5.10;2.03;;;11.80;73.50;;;;;;2370846;53;20946;-74
2022/11/26 06:14:55;;;;;;;5.37;2.47;;;11.80;73.50;;;;;;2602202;52;20930;-74
2022/11/26 06:17:21;;;;;;;4.45;2.37;;;11.80;73.50;;;;;;2371480;53;20994;-74
2022/11/26 06:19:48;;;;;;;4.80;2.35;;;11.70;73.40;;;;;;2501186;52;21411;-74
2022/11/26 06:22:14;;;;;;;7.82;2.55;;;11.80;73.60;;;;;;2496094;52;20954;-74
2022/11/26 06:24:41;;;;;;;7.25;2.55;;;11.80;73.70;;;;;;2371825;53;21771;-74
2022/11/26 06:27:07;;;;;;;4.75;2.45;;;11.70;73.60;;;;;;2371444;53;21373;-73
2022/11/26 06:29:36;;;;;;;4.22;2.12;;;11.80;73.80;;;;;;2371670;53;21800;-74
2022/11/26 06:32:06;;;;;;;5.45;2.17;;;11.70;73.60;;;;;;2348374;53;21273;-74
2022/11/26 06:34:32;;;;;;;6.57;2.17;;;11.80;73.70;;;;;;2589639;52;20920;-74
2022/11/26 06:37:00;;;;;;;4.15;2.08;;;11.80;73.70;;;;;;2343695;54;20961;-74
2022/11/26 06:39:26;;;;;;;6.80;2.58;;;11.70;73.60;;;;;;2595038;52;20989;-74
2022/11/26 06:41:53;;;;;;;5.05;2.35;;;11.80;73.80;;;;;;2342132;54;20997;-74
2022/11/26 06:44:19;;;;;;;6.65;2.50;;;11.70;73.70;;;;;;2587758;53;20992;-74
2022/11/26 06:46:47;;;;;;;7.32;2.42;;;11.80;73.80;;;;;;2355580;53;21050;-74
2022/11/26 06:49:13;;;;;;;5.25;1.90;;;11.70;73.70;;;;;;2624348;52;21744;-73
2022/11/26 06:51:40;;;;;;;4.07;2.10;;;11.70;73.70;;;;;;2370857;53;20989;-74
2022/11/26 06:54:06;;;;;;;4.75;2.47;;;11.70;73.70;;;;;;2591144;52;20913;-74
2022/11/26 06:56:34;;;;;;;5.12;2.72;;;11.70;73.70;;;;;;2590119;52;20999;-74
2022/11/26 06:59:01;;;;;;;5.40;2.45;;;11.70;73.60;;;;;;2342832;53;20958;-74
2022/11/26 07:01:28;;;;;;;5.53;2.70;;;11.70;73.60;;;;;;2556708;52;20930;-74
2022/11/26 07:03:54;;;;;;;5.55;2.40;;;11.70;73.60;;;;;;2409139;52;20971;-73
2022/11/26 07:06:25;;;;;;;6.95;3.05;;;11.70;73.60;;;;;;2343291;53;20990;-74
2022/11/26 07:08:53;;;;;;;7.12;3.03;;;11.70;73.50;;;;;;2343980;53;21810;-74
2022/11/26 07:11:20;;;;;;;6.03;3.12;;;11.70;73.50;;;;;;2591840;52;20932;-74
2022/11/26 07:13:46;;;;;;;5.95;2.83;;;11.70;73.40;;;;;;2592868;52;21668;-74
2022/11/26 07:16:13;;;;;;;9.23;3.42;;;11.70;73.30;;;;;;2342339;54;20910;-74
2022/11/26 07:18:39;;;;;;;8.10;3.70;;;11.70;73.30;;;;;;2611127;52;20917;-74
2022/11/26 07:21:10;;;;;;;8.48;3.75;;;11.60;73.20;;;;;;2445147;52;20982;-74
2022/11/26 07:23:37;;;;;;;9.35;4.62;;;11.60;73.00;;;;;;2474911;52;20983;-74
2022/11/26 07:26:03;;;;;;;6.47;3.45;;;11.60;73.00;;;;;;2581571;52;20996;-74
2022/11/26 07:28:30;;;;;;;9.65;4.75;;;11.60;72.90;;;;;;2580521;52;21058;-74
2022/11/26 07:31:00;;;;;;;6.80;3.78;;;11.60;72.80;;;;;;2342966;53;20982;-74
2022/11/26 07:33:27;;;;;;;6.78;3.87;;;11.60;72.60;;;;;;2589781;52;20938;-74
2022/11/26 07:35:54;;;;;;;6.78;3.22;;;11.50;72.60;;;;;;2339873;53;20937;-74
2022/11/26 07:38:21;;;;;;;8.23;3.45;;;11.50;72.50;;;;;;2516243;52;22004;-75
2022/11/26 07:40:47;;;;;;;7.60;3.85;;;11.40;72.40;;;;;;2340850;54;20946;-74
2022/11/26 07:43:14;;;;;;;8.07;3.53;;;11.40;72.30;;;;;;2553899;52;21119;-74
2022/11/26 07:45:41;;;;;;;5.80;3.83;;;11.40;72.30;;;;;;2402508;52;20907;-74
2022/11/26 07:48:08;;;;;;;9.85;5.07;;;11.30;72.30;;;;;;2501861;52;20926;-74
2022/11/26 07:50:36;;;;;;;6.30;3.62;;;11.30;72.40;;;;;;2582188;52;20950;-74
2022/11/26 07:53:03;;;;;;;6.70;3.60;;;11.30;72.50;;;;;;2613699;52;22002;-74
2022/11/26 07:55:37;;;;;;;7.80;4.07;;;11.20;72.50;;;;;;2362366;53;20942;-74
2022/11/26 07:58:04;;;;;;;5.47;3.20;;;11.30;72.60;;;;;;2545080;52;21995;-74
2022/11/26 08:00:32;;;;;;;5.07;3.03;;;11.20;72.60;;;;;;2343800;53;20954;-74
2022/11/26 08:02:59;;;;;;;4.45;2.95;;;11.20;72.60;;;;;;2581894;52;20996;-74
2022/11/26 08:05:25;;;;;;;5.35;2.80;;;11.20;72.50;;;;;;2334731;53;21080;-74
2022/11/26 08:07:52;;;;;;;5.03;2.92;;;11.10;72.40;;;;;;2357138;53;20990;-74
2022/11/26 08:10:20;;;;;;;5.97;3.85;;;11.10;72.50;;;;;;2340959;53;22111;-74
2022/11/26 08:12:47;;;;;;;6.28;3.72;;;11.10;72.60;;;;;;2346860;53;21026;-74
2022/11/26 08:15:13;;;;;;;6.22;3.85;;;11.10;72.70;;;;;;2603434;52;21001;-74
2022/11/26 08:17:40;;;;;;;7.68;4.65;;;11.10;72.80;;;;;;2613396;52;20903;-74
2022/11/26 08:20:08;;;;;;;11.57;5.43;;;11.10;73.00;;;;;;2613558;52;20966;-74
2022/11/26 08:22:35;;;;;;;10.70;6.50;;;11.10;73.10;;;;;;2361253;53;20894;-74
2022/11/26 08:25:02;;;;;;;14.38;7.40;;;11.10;73.20;;;;;;2361691;53;20998;-74
2022/11/26 08:27:31;;;;;;;15.57;7.18;;;11.10;73.30;;;;;;2346028;53;21098;-74
2022/11/26 08:29:58;;;;;;;13.27;6.68;;;11.10;73.40;;;;;;2353889;53;21320;-74
2022/11/26 08:32:25;;;;;;;13.05;6.95;;;11.10;73.50;;;;;;2344004;53;20891;-74
2022/11/26 08:34:51;;;;;;;10.00;5.72;;;11.00;73.50;;;;;;2362338;53;21840;-74
2022/11/26 08:37:17;;;;;;;9.75;5.30;;;11.10;73.60;;;;;;2349396;53;21022;-74
2022/11/26 08:39:44;;;;;;;8.32;4.70;;;11.10;73.60;;;;;;2354070;53;20985;-74
2022/11/26 08:42:10;;;;;;;9.52;4.87;;;11.10;73.60;;;;;;2614144;52;20943;-73
2022/11/26 08:44:37;;;;;;;7.20;3.90;;;11.10;73.60;;;;;;2361534;53;20898;-74
2022/11/26 08:47:04;;;;;;;5.57;3.08;;;11.00;73.50;;;;;;2545898;52;21109;-74
2022/11/26 08:49:31;;;;;;;5.15;2.97;;;11.10;73.60;;;;;;2361198;53;20942;-74
2022/11/26 08:51:57;;;;;;;7.32;3.10;;;11.10;73.60;;;;;;2466212;52;20918;-74
2022/11/26 08:54:24;;;;;;;6.47;3.12;;;11.10;73.60;;;;;;2361590;53;20962;-74
2022/11/26 08:56:51;;;;;;;6.78;2.92;;;11.10;73.60;;;;;;2613232;52;20938;-74
2022/11/26 08:59:19;;;;;;;4.78;2.58;;;11.10;73.60;;;;;;2361629;53;21436;-74
2022/11/26 09:01:46;;;;;;;6.55;2.92;;;11.20;73.70;;;;;;2361192;53;20939;-74
2022/11/26 09:04:12;;;;;;;4.82;3.03;;;11.20;73.80;;;;;;2341328;53;21550;-75
2022/11/26 09:06:40;;;;;;;6.57;3.40;;;11.20;74.50;;;;;;2362008;53;20965;-74
2022/11/26 09:09:12;;;;;;;7.55;2.97;;;11.20;73.80;;;;;;2481729;52;21078;-75
2022/11/26 09:12:01;;;;;;;7.40;3.08;;;11.20;74.00;;;;;;2346921;53;21133;-74
2022/11/26 09:14:29;;;;;;;7.20;3.10;;;11.20;73.70;;;;;;2361530;53;20946;-74
2022/11/26 09:16:57;;;;;;;6.80;3.47;;;11.20;74.10;;;;;;2359499;53;21097;-75
2022/11/26 09:19:25;;;;;;;6.37;3.28;;;11.30;74.30;;;;;;2340680;53;21022;-74
2022/11/26 09:21:56;;;;;;;6.37;3.30;;;11.30;74.30;;;;;;2353161;53;20938;-74
2022/11/26 09:24:22;;;;;;;9.00;3.05;;;11.30;74.40;;;;;;2343361;53;21041;-75
2022/11/26 09:26:52;;;;;;;7.47;3.87;;;11.40;74.70;;;;;;2554063;52;20991;-74
2022/11/26 09:29:19;;;;;;;6.97;4.12;;;11.40;74.80;;;;;;2355613;53;20963;-74
2022/11/26 09:31:46;;;;;;;8.23;3.67;;;11.40;74.90;;;;;;2362015;53;20991;-74
2022/11/26 09:34:33;;;;;;;5.80;3.60;;;11.50;75.00;;;;;;2361798;53;20974;-74
2022/11/26 09:37:00;;;;;;;7.70;3.72;;;11.50;75.00;;;;;;2361891;53;21341;-74
2022/11/26 09:39:27;;;;;;;7.47;3.33;;;11.60;75.10;;;;;;2361536;53;20989;-74
2022/11/26 09:45:03;;;;;;;6.12;3.20;;;11.50;74.90;;;;;;2341815;54;21926;-74
2022/11/26 09:47:44;;;;;;;6.57;2.45;;;11.70;74.00;;;;;;2361465;53;20922;-75
2022/11/26 09:50:28;;;;;;;5.45;2.50;;;11.80;74.80;;;;;;2433334;52;20930;-75
2022/11/26 09:53:02;;;;;;;6.15;2.90;;;11.80;74.50;;;;;;2583026;52;21073;-74
2022/11/26 09:55:30;;;;;;;5.87;3.05;;;11.80;74.50;;;;;;2613176;52;22094;-74
2022/11/26 09:58:46;;;;;;;5.37;2.90;;;11.80;74.60;;;;;;2361793;53;21522;-74
2022/11/26 10:01:15;;;;;;;4.93;2.37;;;11.90;74.10;;;;;;2361937;53;21328;-75
2022/11/26 10:03:42;;;;;;;7.03;2.55;;;11.90;74.70;;;;;;2361264;53;20930;-75
2022/11/26 10:06:34;;;;;;;4.20;2.25;;;11.90;74.80;;;;;;2361764;53;20910;-74
2022/11/26 10:15:42;;;;;;;5.78;2.55;;;11.90;74.30;;;;;;2484276;52;21895;-74
2022/11/26 10:21:45;;;;;;;4.60;1.77;;;12.10;73.90;;;;;;2361954;53;21489;-74
2022/11/26 10:24:40;;;;;;;5.85;2.35;;;12.10;74.50;;;;;;2548716;52;21971;-74
2022/11/26 10:27:13;;;;;;;5.32;2.40;;;12.20;74.70;;;;;;2593917;52;20994;-74
2022/11/26 10:29:45;;;;;;;5.00;2.20;;;12.20;75.10;;;;;;2419534;52;22008;-75
2022/11/26 10:32:26;;;;;;;5.97;2.20;;;12.20;75.30;;;;;;2433250;52;21529;-74
2022/11/26 10:34:54;;;;;;;5.45;2.58;;;12.30;75.40;;;;;;2587704;52;20938;-75
2022/11/26 10:37:22;;;;;;;6.18;2.60;;;12.30;75.40;;;;;;2361625;53;22191;-75
2022/11/26 10:39:48;;;;;;;4.68;2.53;;;12.30;75.30;;;;;;2613247;52;20986;-74
2022/11/26 10:42:20;;;;;;;4.78;2.33;;;12.40;75.30;;;;;;2361775;53;21654;-75
2022/11/26 10:44:47;;;;;;;3.67;2.08;;;12.50;75.30;;;;;;2613370;52;21014;-75
2022/11/26 10:47:28;;;;;;;7.47;2.78;;;12.50;75.40;;;;;;2361591;53;21045;-75
2022/11/26 10:50:32;;;;;;;7.43;2.85;;;12.50;75.30;;;;;;2341815;54;21499;-74
2022/11/26 10:53:20;;;;;;;5.60;2.60;;;12.60;75.60;;;;;;2361533;53;20981;-75
2022/11/26 10:55:46;;;;;;;5.62;3.17;;;12.60;75.40;;;;;;2362636;53;20934;-75
2022/11/26 10:58:18;;;;;;;6.37;3.05;;;12.70;75.60;;;;;;2613456;52;20973;-75
2022/11/26 11:00:57;;;;;;;7.37;3.28;;;12.70;75.20;;;;;;2361269;53;20949;-74
2022/11/26 11:04:58;;;;;;;4.53;2.67;;;12.80;75.00;;;;;;2334346;53;22016;-74
2022/11/26 11:07:43;;;;;;;7.20;2.90;;;12.90;75.50;;;;;;2333959;53;20913;-75
2022/11/26 11:10:15;;;;;;;6.12;3.03;;;12.90;75.00;;;;;;2333764;53;21021;-74
2022/11/26 11:12:49;;;;;;;7.37;2.97;;;12.90;75.20;;;;;;2556531;52;20932;-77
2022/11/26 11:15:26;;;;;;;6.55;3.17;;;13.00;75.20;;;;;;2333428;53;20911;-75
2022/11/26 11:18:16;;;;;;;5.25;2.85;;;13.00;74.90;;;;;;2315121;54;21966;-76
2022/11/26 11:20:56;;;;;;;5.03;2.87;;;13.00;74.80;;;;;;2579436;52;20933;-75
2022/11/26 11:23:27;;;;;;;6.28;2.92;;;13.10;75.40;;;;;;2383516;52;21962;-77
2022/11/26 11:27:20;;;;;;;6.95;2.80;;;13.10;75.00;;;;;;2342043;53;21016;-78
2022/11/26 11:29:46;;;;;;;6.07;3.40;;;13.10;74.10;;;;;;2356466;54;21938;-75
2022/11/26 11:32:32;;;;;;;5.40;3.28;;;13.10;75.00;;;;;;2357053;54;22011;-75
2022/11/26 11:35:20;;;;;;;5.15;2.60;;;13.20;74.80;;;;;;2356866;54;21483;-74
2022/11/26 11:37:48;;;;;;;5.95;2.70;;;13.20;75.10;;;;;;2333666;53;21975;-75
2022/11/26 11:40:19;;;;;;;8.30;3.15;;;13.30;75.40;;;;;;2337502;53;21052;-75
2022/11/26 11:42:50;;;;;;;;;;;13.30;75.40;;;;;;2366011;53;20990;-75
2022/11/26 11:45:31;;;;;;;7.07;3.05;;;13.30;74.30;;;;;;2361872;53;20169;-77
2022/11/26 11:48:00;;;;;;;6.35;3.17;;;13.40;75.30;;;;;;2342455;53;20950;-75
2022/11/26 11:50:37;;;;;;;6.75;3.65;;;13.40;75.80;;;;;;2404756;52;21934;-75
2022/11/26 11:53:27;;;;;;;6.97;2.97;;;13.50;75.90;;;;;;2361453;53;20934;-75
2022/11/26 11:56:32;;;;;;;6.57;3.05;;;13.50;75.50;;;;;;2518935;52;21402;-76
2022/11/26 12:00:55;;;;;;;5.50;3.10;;;13.60;75.60;;;;;;2559118;52;21856;-75
2022/11/26 12:03:44;;;;;;;4.47;1.97;;;13.70;75.00;;;;;;2362689;53;21069;-75
2022/11/26 12:08:06;;;;;;;6.37;2.22;;;13.70;75.60;;;;;;2361993;53;21022;-78
2022/11/26 12:10:42;;;;;;;4.50;2.25;;;13.80;75.00;;;;;;2361720;53;20902;-79
2022/11/26 12:13:09;;;;;;;7.93;3.37;;;13.90;75.20;;;;;;2361632;53;20934;-75
2022/11/26 12:15:41;;;;;;;8.38;3.15;;;13.90;75.50;;;;;;2362747;53;20959;-74
2022/11/26 12:18:58;;;;;;;7.62;2.95;;;13.90;75.40;;;;;;2361954;53;20918;-77
2022/11/26 12:21:38;;;;;;;6.05;2.58;;;13.90;74.50;;;;;;2362167;53;20957;-73
2022/11/26 12:27:05;;;;;;;6.75;2.28;;;14.00;75.60;;;;;;2362128;53;21723;-77
2022/11/26 12:29:38;;;;;;;5.75;1.83;;;14.00;74.60;;;;;;2361747;53;21097;-76
2022/11/26 12:32:18;;;;;;;5.78;2.08;;;14.10;75.80;;;;;;2361601;53;20938;-74
2022/11/26 12:34:48;;;;;;;5.70;2.33;;;14.10;75.60;;;;;;2361843;53;20985;-75
2022/11/26 12:37:40;;;;;;;7.28;2.47;;;14.20;76.60;;;;;;2613720;52;22032;-74
2022/11/26 12:41:44;;;;;;;5.22;2.15;;;14.20;75.60;;;;;;2362842;53;22120;-78
2022/11/26 12:44:54;;;;;;;6.35;2.37;;;14.20;74.40;;;;;;2361804;53;20982;-77
2022/11/26 12:47:29;;;;;;;5.35;2.45;;;14.30;74.10;;;;;;2343327;53;20946;-76
2022/11/26 12:52:35;;;;;;;6.00;2.90;;;14.30;75.10;;;;;;2362216;53;20997;-74
2022/11/26 12:55:25;;;;;;;6.70;3.10;;;14.40;74.00;;;;;;2362008;53;20934;-73
2022/11/26 12:57:56;;;;;;;4.80;2.47;;;14.40;74.70;;;;;;2361815;53;21030;-74
2022/11/26 13:00:27;;;;;;;7.22;2.80;;;14.40;75.20;;;;;;2362082;53;21106;-73
2022/11/26 13:02:57;;;;;;;5.65;3.37;;;14.40;75.10;;;;;;2361984;53;20890;-76
2022/11/26 13:07:19;;;;;;;7.18;2.95;;;14.40;75.20;;;;;;2361874;53;20950;-74
2022/11/26 13:10:07;;;;;;;7.35;3.35;;;14.50;74.30;;;;;;2440482;52;21108;-74
2022/11/26 13:12:53;;;;;;;6.50;3.92;;;14.50;74.80;;;;;;2361627;53;20938;-76
2022/11/26 13:15:41;;;;;;;6.53;3.83;;;14.50;74.30;;;;;;2361410;53;20935;-76
2022/11/26 13:18:17;;;;;;;6.25;3.95;;;14.50;74.00;;;;;;2361833;53;21226;-77
2022/11/26 13:24:13;;;;;;;7.65;4.10;;;14.50;74.20;;;;;;2361917;53;21341;-76
2022/11/26 13:33:49;;;;;;;7.20;3.62;;;14.50;73.10;;;;;;2406422;52;20918;-76
2022/11/26 13:36:38;;;;;;;6.95;3.35;;;14.50;72.60;;;;;;2588394;52;21050;-78
2022/11/26 13:41:12;;;;;;;6.50;3.67;;;14.40;73.40;;;;;;2440538;52;20930;-75
2022/11/26 13:45:52;;;;;;;7.10;3.70;;;14.40;72.90;;;;;;2355038;53;20958;-75
2022/11/26 13:48:25;;;;;;;5.82;3.22;;;14.30;72.80;;;;;;2361340;53;20989;-76
2022/11/26 13:50:58;;;;;;;6.25;3.65;;;14.30;73.40;;;;;;2448564;53;20918;-75
2022/11/26 13:53:27;;;;;;;;;;;14.20;73.00;;;;;;2345746;53;20942;-77
2022/11/26 13:56:00;;;;;;;6.15;3.65;;;14.20;72.00;;;;;;2415854;52;20069;-78